Garin, Argentina
Current Conditions -  °F | °C
As of 9:00 AM on Saturday 25 Oct 2014 (Local Time) from SADF Reporting Station
Clear Clear  
Wind Chill: 23°   Ceiling: Unl
Heat Index: 23°   Visibility: 6mi
Dew Point: 19°   Wind: 3mph
Humidity: 78%   Direction: 360°N
Pressure: 29.97"   Gusts: NA
Location:  34.43°S, 58.73°W
Report Text: SADF 251200Z 36003KT CAVOK 23/19 Q1015
Loading
Personal Weather Stations






























Interactive Weather Map
Tropical Storm Tracking
New forecast layout! Learn more

10-Day Weather Forecast

Advertisements
Track Severe Weather on mobile